KSHR/SHR METAR and TAF weather

Enter ICAO airport designator
Station Type Date Time Source
KSHR METAR 2020/08/11 18:53 UTC NOAA

KSHR 111853Z AUTO VRB03KT 10SM CLR 33/05 A2989 RMK AO2 SLP076 T03280050


Station Type Date Time Source
KSHR Decoded METAR 2020/08/11 18:53 UTC NOAA

SHERIDAN COUNTY AIRPORT, WY, United States (KSHR) 44-46N 106-58W 1202M
Aug 11, 2020 - 02:53 PM EDT / 2020.08.11 1853 UTC
Wind: Variable at 3 MPH (3 KT):0
Visibility: 10 mile(s):0
Sky conditions: clear
Temperature: 91.0 F (32.8 C)
Dew Point: 41.0 F (5.0 C)
Relative Humidity: 17%
Pressure (altimeter): 29.89 in. Hg (1012 hPa)
ob: KSHR 111853Z AUTO VRB03KT 10SM CLR 33/05 A2989 RMK AO2 SLP076 T03280050
cycle: 19

Station Type Date Time Source
KSHR TAF 2020/08/11 18:22 UTC NOAA

TAF KSHR 111720Z 1118/1218 VRB04KT P6SM FEW100 SCT200

Example: see airport list